createdAt,value
2018-12-30T00:03:28.433Z,101211.30
2018-12-30T00:08:31.249Z,101212.82
2018-12-30T00:13:33.659Z,101208.68
2018-12-30T00:18:36.351Z,101206.47
2018-12-30T00:23:39.566Z,101201.20
2018-12-30T00:28:42.057Z,101196.36
2018-12-30T00:33:44.289Z,101194.62
2018-12-30T00:38:46.423Z,101188.48
2018-12-30T00:43:49.333Z,101186.25
2018-12-30T00:48:52.265Z,101184.77
2018-12-30T00:53:54.924Z,101191.91
2018-12-30T00:58:57.327Z,101192.17
2018-12-30T01:03:59.684Z,101195.02
2018-12-30T01:09:02.355Z,101191.55
2018-12-30T01:14:06.172Z,101200.86
2018-12-30T01:19:09.164Z,101199.44
2018-12-30T01:24:11.435Z,101192.39
2018-12-30T01:29:13.632Z,101199.97
2018-12-30T01:34:15.804Z,101206.70
2018-12-30T01:39:18.707Z,101210.02
2018-12-30T01:44:21.916Z,101204.32
2018-12-30T01:49:24.850Z,101211.50
2018-12-30T01:54:27.613Z,101213.14
2018-12-30T01:59:30.047Z,101205.25
2018-12-30T02:04:32.910Z,101210.28
2018-12-30T02:09:35.050Z,101212.77
2018-12-30T02:14:37.967Z,101216.52
2018-12-30T02:19:40.852Z,101217.80
2018-12-30T02:24:43.771Z,101216.33
2018-12-30T02:29:46.171Z,101214.98
2018-12-30T02:34:48.373Z,101211.41
2018-12-30T02:39:50.583Z,101216.80
2018-12-30T02:44:52.766Z,101219.69
2018-12-30T02:49:56.266Z,101216.47
2018-12-30T02:54:58.667Z,101214.22
2018-12-30T03:00:01.132Z,101207.02
2018-12-30T03:05:04.048Z,101208.47
2018-12-30T03:10:06.320Z,101204.00
2018-12-30T03:15:08.471Z,101205.94
2018-12-30T03:20:11.380Z,101204.00
2018-12-30T03:25:13.596Z,101209.34
2018-12-30T03:30:15.803Z,101211.81
2018-12-30T03:35:18.224Z,101211.23
2018-12-30T03:40:20.385Z,101213.16
2018-12-30T03:45:22.559Z,101217.30
2018-12-30T03:50:24.749Z,101221.04
2018-12-30T03:55:26.952Z,101223.52
2018-12-30T04:00:29.150Z,101227.70
2018-12-30T04:05:32.077Z,101234.83
2018-12-30T04:10:34.720Z,101236.82
2018-12-30T04:15:36.892Z,101241.80
2018-12-30T04:20:39.527Z,101240.36
2018-12-30T04:25:42.437Z,101251.45
2018-12-30T04:30:44.641Z,101262.06
2018-12-30T04:35:47.324Z,101264.11
2018-12-30T04:40:49.951Z,101272.98
2018-12-30T04:45:52.835Z,101276.36
2018-12-30T04:50:56.042Z,101287.87
2018-12-30T04:55:58.683Z,101297.28
2018-12-30T05:01:01.616Z,101307.10
2018-12-30T05:06:03.770Z,101322.14
2018-12-30T05:11:05.926Z,101329.83
2018-12-30T05:16:08.107Z,101340.53
2018-12-30T05:21:10.566Z,101362.12
2018-12-30T05:26:12.742Z,101373.33
2018-12-30T05:31:14.930Z,101379.22
2018-12-30T05:36:17.106Z,101389.92
2018-12-30T05:41:19.278Z,101403.13
2018-12-30T05:46:21.672Z,101410.25
2018-12-30T05:51:23.892Z,101422.09
2018-12-30T05:56:26.027Z,101435.23
2018-12-30T06:01:28.229Z,101449.67
2018-12-30T06:06:30.429Z,101470.17
2018-12-30T06:11:33.401Z,101490.63
2018-12-30T06:16:36.322Z,101500.23
2018-12-30T06:21:39.213Z,101517.69
2018-12-30T06:26:41.634Z,101538.58
2018-12-30T06:31:44.081Z,101550.36
2018-12-30T06:36:46.775Z,101554.34
2018-12-30T06:41:49.218Z,101562.55
2018-12-30T06:46:51.964Z,101579.63
2018-12-30T06:51:54.290Z,101600.16
2018-12-30T06:56:56.458Z,101612.38
2018-12-30T07:01:58.904Z,101623.73
2018-12-30T07:07:02.132Z,101633.08
2018-12-30T07:12:06.061Z,101641.77
2018-12-30T07:17:09.259Z,101646.25
2018-12-30T07:22:11.452Z,101653.84
2018-12-30T07:27:14.357Z,101686.33
2018-12-30T07:32:17.742Z,101700.34
2018-12-30T07:37:20.773Z,101711.34
2018-12-30T07:42:24.084Z,101725.65
2018-12-30T07:47:27.100Z,101741.38
2018-12-30T07:52:30.189Z,101748.36
2018-12-30T07:57:32.473Z,101766.88
2018-12-30T08:02:35.207Z,101779.05
2018-12-30T08:07:37.605Z,101795.76
2018-12-30T08:12:41.518Z,101792.83
2018-12-30T08:17:45.290Z,101786.41
2018-12-30T08:22:47.978Z,101815.22
2018-12-30T08:27:50.131Z,101812.70
2018-12-30T08:32:52.304Z,101812.66
2018-12-30T08:37:54.964Z,101820.53
2018-12-30T08:42:57.182Z,101833.83
2018-12-30T08:47:59.830Z,101834.64
2018-12-30T08:53:01.978Z,101838.18
2018-12-30T08:58:04.243Z,101844.95
2018-12-30T09:03:06.388Z,101851.76
2018-12-30T09:08:09.089Z,101857.34
2018-12-30T09:13:11.591Z,101871.12
2018-12-30T09:18:13.819Z,101877.52
2018-12-30T09:23:16.474Z,101891.27
2018-12-30T09:28:19.132Z,101898.92
2018-12-30T09:33:21.290Z,101899.23
2018-12-30T09:38:23.647Z,101907.30
2018-12-30T09:43:26.045Z,101908.22
2018-12-30T09:48:33.699Z,101916.89
2018-12-30T09:53:33.015Z,101912.16
2018-12-30T09:58:36.092Z,101915.78
2018-12-30T10:03:38.289Z,101916.91
2018-12-30T10:08:40.432Z,101929.67
2018-12-30T10:13:43.488Z,101930.04
2018-12-30T10:18:45.877Z,101933.75
2018-12-30T10:23:52.931Z,101935.97
2018-12-30T10:28:52.347Z,101931.64
2018-12-30T10:33:55.315Z,101936.78
2018-12-30T10:38:57.492Z,101948.55
2018-12-30T10:43:59.746Z,101946.61
2018-12-30T10:49:02.177Z,101948.98
2018-12-30T10:54:04.892Z,101949.58
2018-12-30T10:59:07.070Z,101954.10
2018-12-30T11:04:10.006Z,101943.16
2018-12-30T11:09:13.228Z,101935.23
2018-12-30T11:14:15.500Z,101932.23
2018-12-30T11:19:18.174Z,101925.54
2018-12-30T11:24:20.932Z,101925.09
2018-12-30T11:29:23.155Z,101943.89
2018-12-30T11:34:25.590Z,101932.64
2018-12-30T11:39:28.295Z,101932.16
2018-12-30T11:44:31.069Z,101927.83
2018-12-30T11:49:33.460Z,101927.20
2018-12-30T11:54:36.386Z,101927.97
2018-12-30T11:59:38.585Z,101925.39
2018-12-30T12:04:41.560Z,101929.27
2018-12-30T12:09:43.819Z,101927.83
2018-12-30T12:14:46.243Z,101931.41
2018-12-30T12:19:48.648Z,101930.03
2018-12-30T12:24:53.229Z,101948.47
2018-12-30T12:29:55.476Z,101941.95
2018-12-30T12:34:57.917Z,101947.02
2018-12-30T12:40:00.285Z,101955.56
2018-12-30T12:45:03.120Z,101962.05
2018-12-30T12:50:05.747Z,101965.37
2018-12-30T12:55:08.169Z,101972.25
2018-12-30T13:00:11.942Z,101971.85
2018-12-30T13:05:15.081Z,101968.00
2018-12-30T13:10:17.270Z,101975.00
2018-12-30T13:15:19.854Z,101970.59
2018-12-30T13:20:22.729Z,101979.11
2018-12-30T13:25:25.527Z,101985.22
2018-12-30T13:30:28.200Z,101983.00
2018-12-30T13:35:30.425Z,101989.03
2018-12-30T13:40:32.838Z,101991.14
2018-12-30T13:45:35.180Z,101989.33
2018-12-30T13:50:37.552Z,101997.17
2018-12-30T13:55:39.732Z,101989.77
2018-12-30T14:00:42.616Z,101994.51
2018-12-30T14:05:45.323Z,102002.36
2018-12-30T14:10:47.763Z,102020.98
2018-12-30T14:15:51.061Z,102017.47
2018-12-30T14:20:53.987Z,102035.28
2018-12-30T14:25:56.173Z,102040.02
2018-12-30T14:30:58.592Z,102043.06
2018-12-30T14:36:01.747Z,102042.25
2018-12-30T14:41:04.437Z,102027.47
2018-12-30T14:46:06.786Z,102035.36
2018-12-30T14:51:09.242Z,102046.36
2018-12-30T14:56:12.439Z,102064.91
2018-12-30T15:01:15.548Z,102077.83
2018-12-30T15:06:17.714Z,102079.98
2018-12-30T15:11:20.222Z,102084.34
2018-12-30T15:16:23.161Z,102094.71
2018-12-30T15:21:25.369Z,102100.30
2018-12-30T15:26:27.540Z,102121.48
2018-12-30T15:31:29.982Z,102122.88
2018-12-30T15:36:32.449Z,102113.41
2018-12-30T15:41:34.963Z,102135.47
2018-12-30T15:46:37.614Z,102140.72
2018-12-30T15:51:40.030Z,102145.91
2018-12-30T15:56:42.662Z,102153.72
2018-12-30T16:01:45.829Z,102164.12
2018-12-30T16:06:48.043Z,102168.59
2018-12-30T16:11:50.747Z,102172.98
2018-12-30T16:16:53.433Z,102177.86
2018-12-30T16:21:56.532Z,102174.03
2018-12-30T16:26:58.659Z,102170.22
2018-12-30T16:32:01.603Z,102177.70
2018-12-30T16:37:03.987Z,102165.87
2018-12-30T16:42:06.200Z,102176.39
2018-12-30T16:47:08.372Z,102197.24
2018-12-30T16:52:10.589Z,102196.92
2018-12-30T16:57:13.763Z,102202.64
2018-12-30T17:02:16.429Z,102211.45
2018-12-30T17:07:19.450Z,102208.63
2018-12-30T17:12:22.117Z,102221.60
2018-12-30T17:17:24.813Z,102235.91
2018-12-30T17:22:27.038Z,102244.17
2018-12-30T17:27:29.839Z,102244.23
2018-12-30T17:32:32.057Z,102257.64
2018-12-30T17:37:34.221Z,102266.67
2018-12-30T17:42:36.928Z,102262.34
2018-12-30T17:47:39.961Z,102269.17
2018-12-30T17:52:42.215Z,102274.77
2018-12-30T17:57:44.739Z,102281.20
2018-12-30T18:02:47.510Z,102291.06
2018-12-30T18:07:50.555Z,102290.63
2018-12-30T18:12:53.031Z,102306.12
2018-12-30T18:17:56.251Z,102297.51
2018-12-30T18:22:58.463Z,102310.89
2018-12-30T18:28:00.665Z,102312.60
2018-12-30T18:33:03.157Z,102319.95
2018-12-30T18:38:05.577Z,102318.25
2018-12-30T18:43:07.799Z,102322.19
2018-12-30T18:48:10.122Z,102330.31
2018-12-30T18:53:12.306Z,102339.84
2018-12-30T18:58:15.027Z,102339.90
2018-12-30T19:03:17.949Z,102353.72
2018-12-30T19:08:20.622Z,102348.19
2018-12-30T19:13:23.183Z,102349.52
2018-12-30T19:18:26.221Z,102349.53
2018-12-30T19:23:28.960Z,102357.38
2018-12-30T19:28:31.482Z,102374.62
2018-12-30T19:33:33.726Z,102377.70
2018-12-30T19:38:36.667Z,102367.84
2018-12-30T19:43:39.378Z,102366.19
2018-12-30T19:48:42.195Z,102364.61
2018-12-30T19:53:44.598Z,102363.94
2018-12-30T19:58:47.002Z,102365.36
2018-12-30T20:03:49.265Z,102366.34
2018-12-30T20:08:51.793Z,102358.34
2018-12-30T20:13:54.531Z,102361.42
2018-12-30T20:18:56.802Z,102360.66
2018-12-30T20:23:59.216Z,102362.47
2018-12-30T20:29:01.733Z,102363.35
2018-12-30T20:34:04.276Z,102372.50
2018-12-30T20:39:07.171Z,102373.42
2018-12-30T20:44:09.786Z,102384.25
2018-12-30T20:49:12.101Z,102387.34
2018-12-30T20:54:14.861Z,102373.23
2018-12-30T20:59:17.068Z,102371.59
2018-12-30T21:04:19.950Z,102378.16
2018-12-30T21:09:22.663Z,102373.05
2018-12-30T21:14:25.476Z,102394.26
2018-12-30T21:19:27.761Z,102396.06
2018-12-30T21:24:30.625Z,102401.31
2018-12-30T21:29:33.140Z,102405.26
2018-12-30T21:34:35.192Z,102408.30
2018-12-30T21:39:37.431Z,102410.09
2018-12-30T21:44:39.622Z,102424.39
2018-12-30T21:49:41.854Z,102433.08
2018-12-30T21:54:44.048Z,102427.06
2018-12-30T21:59:46.712Z,102435.31
2018-12-30T22:04:49.363Z,102429.41
2018-12-30T22:09:51.543Z,102434.59
2018-12-30T22:14:53.795Z,102427.39
2018-12-30T22:19:57.008Z,102430.48
2018-12-30T22:24:59.168Z,102428.87
2018-12-30T22:30:02.765Z,102427.70
2018-12-30T22:35:05.564Z,102433.86
2018-12-30T22:40:07.967Z,102433.50
2018-12-30T22:45:10.358Z,102437.02
2018-12-30T22:50:12.560Z,102454.30
2018-12-30T22:55:15.084Z,102452.59
2018-12-30T23:00:38.765Z,102448.78
2018-12-30T23:05:43.052Z,102445.84
2018-12-30T23:10:47.554Z,102440.74
2018-12-30T23:15:50.403Z,102449.88
2018-12-30T23:20:53.447Z,102463.70
2018-12-30T23:25:56.045Z,102462.05
2018-12-30T23:30:58.458Z,102475.02
2018-12-30T23:36:00.614Z,102472.48
2018-12-30T23:41:02.774Z,102466.95
2018-12-30T23:46:04.923Z,102465.29
2018-12-30T23:51:07.366Z,102468.30
2018-12-30T23:56:10.001Z,102487.64
